Time;durP1;ratioP1;P1;durP2;ratioP2;P2;SDS_P1;SDS_P2;PMS_P1;PMS_P2;Temp;Humidity;BMP_temperature;BMP_pressure;BME280_temperature;BME280_humidity;BME280_pressure;Samples;Min_cycle;Max_cycle;Signal;HPM_P1;HPM_P2
2022/07/02 00:01:10;;;;;;;7.47;6.72;;;;;;;22.95;75.67;94672.84;5059958;22;20274;-59
2022/07/02 00:03:37;;;;;;;9.82;6.43;;;;;;;22.84;75.90;94655.34;5053314;28;20188;-59
2022/07/02 00:06:05;;;;;;;11.60;7.38;;;;;;;22.86;75.56;94672.31;5054920;28;20205;-59
2022/07/02 00:08:33;;;;;;;9.32;7.50;;;;;;;22.74;76.30;94653.19;5055720;28;20239;-60
2022/07/02 00:11:01;;;;;;;8.45;7.35;;;;;;;22.63;76.57;94650.41;5055557;28;20572;-61
2022/07/02 00:13:27;;;;;;;9.80;7.10;;;;;;;22.49;77.41;94632.28;5055144;28;20174;-62
2022/07/02 00:15:54;;;;;;;9.48;7.10;;;;;;;22.39;78.57;94626.75;5055270;28;20197;-61
2022/07/02 00:18:20;;;;;;;7.45;6.55;;;;;;;22.20;79.69;94603.47;5055349;28;20265;-61
2022/07/02 00:20:46;;;;;;;9.38;6.85;;;;;;;22.18;79.66;94600.28;5055216;28;20279;-62
2022/07/02 00:23:12;;;;;;;7.22;6.53;;;;;;;22.30;80.78;94601.25;5055357;28;20177;-59
2022/07/02 00:25:41;;;;;;;8.07;6.57;;;;;;;22.30;80.19;94601.25;5055662;28;20223;-62
2022/07/02 00:28:21;;;;;;;6.80;6.20;;;;;;;22.32;80.38;94604.44;5055326;28;20640;-61
2022/07/02 00:30:47;;;;;;;6.90;6.20;;;;;;;22.53;77.99;94645.63;5055191;28;20270;-65
2022/07/02 00:33:14;;;;;;;10.70;6.28;;;;;;;22.42;77.87;94638.50;5055426;28;20182;-59
2022/07/02 00:35:41;;;;;;;6.32;5.72;;;;;;;22.35;77.78;94635.91;5055517;28;20208;-61
2022/07/02 00:38:07;;;;;;;7.13;6.35;;;;;;;22.34;78.25;94628.34;5037155;28;20192;-61
2022/07/02 00:40:33;;;;;;;10.38;6.20;;;;;;;22.33;77.96;94629.34;5055319;28;20221;-62
2022/07/02 00:42:59;;;;;;;8.68;5.95;;;;;;;22.39;78.14;94638.88;5054930;28;20211;-61
2022/07/02 00:45:27;;;;;;;7.10;6.22;;;;;;;22.38;77.99;94639.91;5055193;28;20281;-62
2022/07/02 00:47:57;;;;;;;6.78;6.07;;;;;;;22.35;78.78;94627.34;5055014;28;20223;-61
2022/07/02 00:50:23;;;;;;;6.70;6.00;;;;;;;22.30;78.73;94637.53;5036776;28;20236;-61
2022/07/02 00:52:49;;;;;;;9.52;6.00;;;;;;;22.23;78.54;94642.72;5054691;28;20189;-61
2022/07/02 00:55:15;;;;;;;7.25;6.53;;;;;;;22.01;80.07;94612.03;5055158;28;20210;-61
2022/07/02 00:57:42;;;;;;;8.05;6.00;;;;;;;21.98;80.43;94609.88;5054715;28;20189;-62
2022/07/02 01:00:08;;;;;;;7.78;6.30;;;;;;;21.93;81.24;94599.31;5054755;28;20209;-63
2022/07/02 01:02:35;;;;;;;8.93;6.13;;;;;;;21.77;82.34;94603.06;5054674;28;20264;-62
2022/07/02 01:05:01;;;;;;;7.25;6.38;;;;;;;21.81;82.79;94595.69;5054554;28;20206;-61
2022/07/02 01:07:29;;;;;;;7.13;6.43;;;;;;;21.62;84.08;94587.72;5036579;28;20175;-61
2022/07/02 01:12:44;;;;;;;6.65;5.90;;;;;;;21.76;83.83;94598.88;5074453;28;20311;-62
2022/07/02 01:15:10;;;;;;;7.93;6.15;;;;;;;21.82;83.79;94598.09;5074375;28;20586;-58
2022/07/02 01:17:35;;;;;;;7.00;6.30;;;;;;;21.69;84.25;94590.31;5074365;28;20188;-60
2022/07/02 01:20:05;;;;;;;7.70;6.85;;;;;;;21.74;84.26;94593.09;5074382;28;20212;-61
2022/07/02 01:22:41;;;;;;;7.15;6.22;;;;;;;21.64;85.16;94588.31;5074265;28;20681;-60
2022/07/02 01:25:08;;;;;;;6.90;5.68;;;;;;;21.75;84.41;94602.47;5074042;28;20651;-61
2022/07/02 01:27:34;;;;;;;8.25;6.50;;;;;;;21.75;83.98;94598.06;5074064;28;20212;-62
2022/07/02 01:30:00;;;;;;;7.78;6.55;;;;;;;21.59;83.89;94598.47;5074044;28;20232;-62
2022/07/02 01:32:25;;;;;;;6.60;6.00;;;;;;;21.54;83.79;94598.28;5074100;28;20205;-61
2022/07/02 01:34:53;;;;;;;6.63;6.03;;;;;;;21.35;84.77;94593.84;5073998;28;20188;-67
2022/07/02 01:37:21;;;;;;;8.05;6.70;;;;;;;21.26;85.83;94582.13;5074047;28;20195;-60
2022/07/02 01:39:47;;;;;;;7.40;6.50;;;;;;;21.24;85.67;94583.31;5073862;28;20701;-62
2022/07/02 01:42:13;;;;;;;9.75;6.57;;;;;;;21.19;86.18;94583.88;5055908;28;20173;-59
2022/07/02 01:44:40;;;;;;;7.03;6.32;;;;;;;21.18;86.69;94584.09;5073807;28;20197;-60
2022/07/02 01:47:08;;;;;;;6.82;6.13;;;;;;;21.05;87.36;94578.91;5073713;28;20183;-61
2022/07/02 01:49:35;;;;;;;10.05;6.43;;;;;;;20.97;88.13;94589.38;5074231;28;20276;-61
2022/07/02 01:52:02;;;;;;;9.70;6.07;;;;;;;21.02;88.05;94592.19;5073549;28;20234;-60
2022/07/02 01:54:27;;;;;;;7.38;6.55;;;;;;;20.87;89.47;94589.72;5073677;28;20212;-60
2022/07/02 01:56:53;;;;;;;6.43;5.88;;;;;;;20.98;89.13;94601.31;5055511;28;20226;-61
2022/07/02 01:59:19;;;;;;;7.85;6.85;;;;;;;20.97;89.13;94600.50;5055531;28;20209;-61
2022/07/02 02:01:45;;;;;;;7.47;6.35;;;;;;;21.13;87.86;94600.19;5055298;28;20230;-61
2022/07/02 02:04:11;;;;;;;10.05;6.80;;;;;;;21.16;88.14;94607.56;5073941;28;20177;-59
2022/07/02 02:06:37;;;;;;;7.25;6.38;;;;;;;21.16;87.82;94599.81;5073327;28;20239;-62
2022/07/02 02:09:04;;;;;;;7.43;6.72;;;;;;;21.15;88.09;94593.03;5073496;28;20621;-63
2022/07/02 02:11:29;;;;;;;8.77;5.95;;;;;;;21.25;88.44;94603.78;5072375;28;20670;-62
2022/07/02 02:13:58;;;;;;;6.95;6.25;;;;;;;21.23;87.92;94613.53;5073508;28;20193;-59
2022/07/02 02:16:27;;;;;;;6.90;6.30;;;;;;;21.27;87.83;94619.91;5073338;28;20212;-62
2022/07/02 02:18:53;;;;;;;10.32;6.85;;;;;;;21.41;86.42;94621.53;5073556;28;20289;-61
2022/07/02 02:21:18;;;;;;;7.63;6.88;;;;;;;21.45;86.56;94622.72;5055211;28;20197;-61
2022/07/02 02:23:44;;;;;;;7.10;6.45;;;;;;;21.44;85.89;94626.31;5054637;28;20290;-59
2022/07/02 02:26:09;;;;;;;8.02;6.68;;;;;;;21.42;85.82;94624.91;5072847;28;20204;-61
2022/07/02 02:28:35;;;;;;;7.75;6.85;;;;;;;21.42;87.07;94625.72;5073269;28;20541;-62
2022/07/02 02:31:00;;;;;;;7.70;6.35;;;;;;;21.44;86.78;94625.50;5072942;28;20220;-63
2022/07/02 02:33:26;;;;;;;8.95;6.88;;;;;;;21.42;85.82;94643.81;5073068;28;20191;-61
2022/07/02 02:35:52;;;;;;;7.35;6.65;;;;;;;21.37;85.74;94642.84;5072693;28;20203;-61
2022/07/02 02:38:17;;;;;;;9.30;6.68;;;;;;;21.20;86.65;94626.06;5054783;28;20563;-61
2022/07/02 02:40:43;;;;;;;7.55;6.85;;;;;;;21.08;87.99;94628.41;5072687;28;20700;-58
2022/07/02 02:43:08;;;;;;;8.40;6.88;;;;;;;21.12;88.06;94634.81;5054716;28;20193;-61
2022/07/02 02:45:34;;;;;;;10.63;6.60;;;;;;;21.18;88.08;94631.44;5072578;28;20192;-58
2022/07/02 02:47:59;;;;;;;9.07;7.13;;;;;;;21.08;89.93;94625.84;5072451;28;20188;-59
2022/07/02 02:50:25;;;;;;;6.78;6.18;;;;;;;21.04;90.70;94629.81;5072463;28;20193;-60
2022/07/02 02:52:50;;;;;;;7.82;6.93;;;;;;;21.15;90.49;94629.22;5072434;28;20223;-59
2022/07/02 02:55:16;;;;;;;7.60;6.88;;;;;;;21.16;89.64;94628.25;5072338;28;20286;-59
2022/07/02 02:57:41;;;;;;;7.13;6.22;;;;;;;21.19;89.29;94647.75;5072296;28;20330;-61
2022/07/02 03:00:07;;;;;;;9.52;6.47;;;;;;;21.18;89.61;94643.56;5072244;28;20626;-61
2022/07/02 03:02:32;;;;;;;9.25;6.68;;;;;;;21.04;90.42;94647.91;5072208;28;20211;-62
2022/07/02 03:04:58;;;;;;;8.23;7.43;;;;;;;20.81;92.09;94643.00;5072175;28;20700;-63
2022/07/02 03:07:23;;;;;;;9.25;7.43;;;;;;;20.60;94.64;94650.06;5072072;28;20260;-61
2022/07/02 03:09:49;;;;;;;8.48;6.75;;;;;;;20.67;94.46;94662.00;5054319;28;20298;-62
2022/07/02 03:12:14;;;;;;;7.90;6.75;;;;;;;20.69;94.32;94659.22;5054257;28;20268;-62
2022/07/02 03:14:39;;;;;;;8.20;7.45;;;;;;;20.65;94.76;94666.56;5071706;28;20208;-59
2022/07/02 03:17:05;;;;;;;8.55;6.97;;;;;;;20.51;95.96;94658.94;5072147;28;20303;-61
2022/07/02 03:19:30;;;;;;;7.70;7.00;;;;;;;20.65;96.94;94661.41;5071811;28;20220;-59
2022/07/02 03:21:56;;;;;;;7.88;7.18;;;;;;;20.82;94.57;94665.28;5071961;28;20173;-59
2022/07/02 03:24:22;;;;;;;7.88;7.07;;;;;;;20.67;94.39;94666.38;5071929;28;20196;-62
2022/07/02 03:26:48;;;;;;;8.30;7.13;;;;;;;20.67;94.89;94666.38;5072169;28;20208;-65
2022/07/02 03:29:13;;;;;;;8.07;7.28;;;;;;;20.67;94.91;94667.19;5071716;28;20181;-62
2022/07/02 03:31:39;;;;;;;10.15;7.75;;;;;;;20.58;95.20;94670.13;5072003;28;20177;-60
2022/07/02 03:34:04;;;;;;;8.35;6.63;;;;;;;20.48;96.47;94670.44;5072065;28;20181;-59
2022/07/02 03:36:30;;;;;;;8.98;7.03;;;;;;;20.42;97.29;94676.34;5070804;28;20196;-60
2022/07/02 03:38:55;;;;;;;10.65;7.47;;;;;;;20.33;98.10;94676.69;5071685;28;20216;-62
2022/07/02 03:41:20;;;;;;;10.20;7.85;;;;;;;20.40;97.88;94680.13;5071618;28;20572;-59
2022/07/02 03:43:46;;;;;;;7.10;6.50;;;;;;;20.44;97.65;94678.78;5072028;28;20200;-61
2022/07/02 03:46:12;;;;;;;9.15;7.50;;;;;;;20.41;97.53;94674.78;5071500;28;20204;-58
2022/07/02 03:48:38;;;;;;;10.55;7.20;;;;;;;20.44;98.54;94678.78;5071439;28;20206;-59
2022/07/02 03:51:03;;;;;;;10.27;7.30;;;;;;;20.39;98.53;94681.91;5071419;28;20697;-59
2022/07/02 03:53:29;;;;;;;8.50;7.25;;;;;;;20.42;98.34;94688.50;5053504;28;20190;-61
2022/07/02 03:55:54;;;;;;;8.55;7.32;;;;;;;20.59;96.89;94698.34;5071412;28;20224;-62
2022/07/02 03:58:21;;;;;;;7.80;7.10;;;;;;;20.43;97.62;94695.25;5071683;28;20287;-62
2022/07/02 04:00:46;;;;;;;9.43;7.80;;;;;;;20.53;97.18;94696.50;5071275;28;20219;-62
2022/07/02 04:03:12;;;;;;;15.70;7.85;;;;;;;20.53;97.00;94690.53;5053642;28;20181;-62
2022/07/02 04:05:37;;;;;;;10.63;7.90;;;;;;;20.63;97.13;94688.41;5071860;28;20542;-60
2022/07/02 04:08:03;;;;;;;8.55;7.60;;;;;;;20.79;95.96;94703.63;5071631;28;20630;-61
2022/07/02 04:10:28;;;;;;;8.35;7.55;;;;;;;20.86;94.71;94704.47;5071458;28;20203;-61
2022/07/02 04:12:54;;;;;;;8.27;7.30;;;;;;;20.81;95.27;94696.47;5071495;28;20234;-62
2022/07/02 04:15:20;;;;;;;9.55;8.15;;;;;;;20.81;95.35;94697.28;5071304;28;20575;-62
2022/07/02 04:17:45;;;;;;;12.18;7.47;;;;;;;20.93;95.13;94702.69;5071428;28;20184;-63
2022/07/02 04:20:11;;;;;;;12.43;7.60;;;;;;;20.92;94.36;94704.50;5071206;28;20300;-60
2022/07/02 04:22:36;;;;;;;9.38;7.03;;;;;;;20.96;94.41;94710.06;5053610;28;20241;-60
2022/07/02 04:25:02;;;;;;;8.48;7.00;;;;;;;20.95;94.98;94711.06;5071280;28;20253;-62
2022/07/02 04:27:27;;;;;;;10.07;7.65;;;;;;;20.95;95.54;94705.88;5071279;28;20173;-61
2022/07/02 04:29:53;;;;;;;11.23;7.32;;;;;;;20.96;94.94;94710.06;5070992;28;20563;-61
2022/07/02 04:32:18;;;;;;;11.27;7.63;;;;;;;20.89;95.25;94711.81;5071454;28;20180;-61
2022/07/02 04:34:44;;;;;;;11.07;7.68;;;;;;;20.82;95.85;94708.41;5071536;28;20295;-62
2022/07/02 04:37:09;;;;;;;8.65;7.75;;;;;;;20.95;95.79;94711.06;5071162;28;20587;-62
2022/07/02 04:39:35;;;;;;;8.63;7.82;;;;;;;21.00;95.47;94711.28;5053012;28;20262;-60
2022/07/02 04:42:00;;;;;;;8.98;8.00;;;;;;;21.13;95.58;94720.94;5071095;28;20234;-63
2022/07/02 04:44:27;;;;;;;12.63;8.25;;;;;;;21.24;94.74;94722.94;5070908;28;20193;-61
2022/07/02 04:46:53;;;;;;;10.13;8.30;;;;;;;21.27;95.21;94713.00;5071908;28;20181;-63
2022/07/02 04:49:18;;;;;;;8.55;7.63;;;;;;;21.48;100.00;94705.13;5074601;28;20178;-63
2022/07/02 04:51:53;;;;;;;9.98;7.05;;;;;;;21.75;97.57;94724.13;5074652;28;20188;-63
2022/07/02 04:54:18;;;;;;;10.02;7.57;;;;;;;21.96;93.99;94729.16;5074564;28;20545;-62
2022/07/02 04:56:44;;;;;;;8.35;7.65;;;;;;;22.00;90.46;94752.88;5074682;28;20181;-62
2022/07/02 04:59:09;;;;;;;8.93;7.15;;;;;;;22.00;92.82;94734.75;5074919;28;20231;-64
2022/07/02 05:01:35;;;;;;;9.88;7.43;;;;;;;22.05;94.81;94716.81;5056646;28;20283;-64
2022/07/02 05:04:00;;;;;;;8.10;7.40;;;;;;;22.28;91.44;94754.28;5056514;28;20187;-62
2022/07/02 05:06:25;;;;;;;8.32;6.45;;;;;;;22.67;96.25;94721.59;5074384;28;20193;-64
2022/07/02 05:08:51;;;;;;;11.80;7.93;;;;;;;23.04;94.07;94744.25;5074641;28;20234;-64
2022/07/02 05:11:19;;;;;;;14.10;8.73;;;;;;;23.08;84.92;94798.13;5074296;28;20193;-64
2022/07/02 05:13:48;;;;;;;11.38;8.60;;;;;;;23.01;83.83;94792.16;5074679;28;20268;-64
2022/07/02 05:16:15;;;;;;;8.93;7.30;;;;;;;22.89;87.99;94744.50;5056635;28;20197;-63
2022/07/02 05:18:41;;;;;;;9.25;7.35;;;;;;;22.96;89.57;94726.34;5074006;28;20600;-63
2022/07/02 05:21:07;;;;;;;10.88;7.70;;;;;;;23.05;88.88;94745.84;5056280;28;20284;-62
2022/07/02 05:23:32;;;;;;;9.05;7.32;;;;;;;23.37;88.20;94751.97;5074067;28;20275;-63
2022/07/02 05:25:58;;;;;;;10.20;8.27;;;;;;;23.57;84.32;94794.22;5074178;28;20238;-64
2022/07/02 05:28:23;;;;;;;8.73;7.80;;;;;;;23.66;82.87;94811.16;5074347;28;20180;-63
2022/07/02 05:30:50;;;;;;;8.82;7.93;;;;;;;23.59;83.58;94807.81;5073991;28;20201;-64
2022/07/02 05:36:00;;;;;;;8.60;7.60;;;;;;;23.82;85.48;94784.72;5074390;28;20261;-63
2022/07/02 05:38:25;;;;;;;9.95;8.13;;;;;;;23.93;83.56;94810.03;5074236;28;20181;-59
2022/07/02 05:40:51;;;;;;;8.70;7.80;;;;;;;23.91;81.80;94830.25;5055727;28;20221;-60
2022/07/02 05:43:16;;;;;;;9.25;8.43;;;;;;;23.97;83.56;94803.44;5073985;28;20188;-59
2022/07/02 05:45:42;;;;;;;8.82;8.02;;;;;;;24.05;83.09;94816.22;5073791;28;20201;-61
2022/07/02 05:48:07;;;;;;;9.60;8.60;;;;;;;24.17;83.05;94810.16;5073722;28;20188;-60
2022/07/02 05:50:33;;;;;;;13.30;9.35;;;;;;;24.19;80.62;94833.31;5055598;28;20563;-61
2022/07/02 05:52:58;;;;;;;15.93;12.85;;;;;;;24.11;81.22;94826.56;5055674;28;20185;-59
2022/07/02 05:55:24;;;;;;;9.35;8.55;;;;;;;24.22;80.80;94825.09;5073523;28;20694;-59
2022/07/02 05:57:49;;;;;;;14.73;10.00;;;;;;;24.45;78.12;94874.75;5073565;28;20235;-61
2022/07/02 06:00:15;;;;;;;12.48;10.07;;;;;;;24.33;78.99;94841.81;5072695;28;20769;-60
2022/07/02 06:02:40;;;;;;;13.00;9.48;;;;;;;24.31;78.31;94855.03;5073432;28;20577;-61
2022/07/02 06:07:51;;;;;;;13.90;9.35;;;;;;;24.04;79.72;94831.00;5073399;28;20191;-60
2022/07/02 06:10:19;;;;;;;11.27;9.63;;;;;;;23.88;79.98;94825.44;5073404;28;20594;-61
2022/07/02 06:12:49;;;;;;;12.35;8.80;;;;;;;24.02;80.24;94821.78;5073313;28;20169;-60
2022/07/02 06:15:18;;;;;;;9.85;8.90;;;;;;;23.96;79.04;94823.41;5073219;28;20299;-60
2022/07/02 06:17:44;;;;;;;11.82;8.88;;;;;;;24.03;79.04;94833.81;5073081;28;20641;-61
2022/07/02 06:20:11;;;;;;;9.77;8.77;;;;;;;24.04;78.38;94832.78;5055044;28;20713;-61
2022/07/02 06:22:36;;;;;;;10.50;9.50;;;;;;;24.06;78.10;94835.97;5055246;28;20662;-62
2022/07/02 06:25:02;;;;;;;12.73;9.00;;;;;;;24.12;78.04;94835.94;5072961;28;20224;-60
2022/07/02 06:27:30;;;;;;;11.75;9.27;;;;;;;24.12;78.49;94833.34;5073072;28;20177;-62
2022/07/02 06:29:56;;;;;;;12.43;9.05;;;;;;;24.17;77.79;94836.13;5072840;28;20702;-62
2022/07/02 06:32:21;;;;;;;10.27;8.88;;;;;;;24.06;79.45;94812.59;5054929;28;20181;-62
2022/07/02 06:34:47;;;;;;;12.55;9.38;;;;;;;24.23;79.10;94829.28;5072865;28;20205;-63
2022/07/02 06:37:12;;;;;;;9.95;8.85;;;;;;;24.18;79.39;94816.13;5072653;28;20669;-63
2022/07/02 06:39:37;;;;;;;11.98;10.32;;;;;;;24.21;80.35;94799.31;5073253;28;20216;-60
2022/07/02 06:42:18;;;;;;;17.42;12.27;;;;;;;24.26;80.55;94809.91;5072629;28;20196;-62
2022/07/02 06:44:45;;;;;;;11.77;9.00;;;;;;;24.32;79.04;94832.44;5073115;28;20189;-64
2022/07/02 06:47:11;;;;;;;12.13;8.82;;;;;;;24.41;78.24;94841.56;5072386;28;20219;-59
2022/07/02 06:49:36;;;;;;;10.40;9.30;;;;;;;24.52;77.69;94844.31;5072914;28;20290;-64
2022/07/02 06:52:02;;;;;;;12.27;9.25;;;;;;;24.63;77.95;94840.22;5072638;28;20185;-62
2022/07/02 06:54:27;;;;;;;10.32;8.65;;;;;;;24.72;78.44;94842.38;5072814;28;20259;-62
2022/07/02 06:56:52;;;;;;;11.10;8.80;;;;;;;24.79;77.28;94853.53;5072399;28;20209;-62
2022/07/02 06:59:18;;;;;;;12.60;9.20;;;;;;;24.88;75.53;94886.09;5072606;28;20668;-63
2022/07/02 07:01:43;;;;;;;12.63;9.05;;;;;;;24.92;75.48;94882.06;5072482;28;20706;-63
2022/07/02 07:04:09;;;;;;;16.33;12.82;;;;;;;25.01;74.88;94895.59;5071953;28;20633;-62
2022/07/02 07:06:38;;;;;;;13.98;12.18;;;;;;;25.08;74.38;94898.94;5061504;22;20228;-61
2022/07/02 07:09:04;;;;;;;14.70;12.38;;;;;;;25.20;74.35;94902.44;5052099;28;20261;-62
2022/07/02 07:11:29;;;;;;;12.68;9.82;;;;;;;25.41;74.12;94898.69;5051888;28;20636;-62
2022/07/02 07:13:55;;;;;;;11.07;9.77;;;;;;;25.54;75.31;94880.31;5052243;28;20178;-60
2022/07/02 07:16:20;;;;;;;11.60;10.40;;;;;;;25.52;75.00;94882.34;5052624;28;20201;-61
2022/07/02 07:18:52;;;;;;;13.02;9.18;;;;;;;25.63;74.37;94895.44;5052044;28;20264;-61
2022/07/02 07:21:17;;;;;;;16.20;11.35;;;;;;;25.77;73.96;94904.75;5052561;28;20216;-64
2022/07/02 07:23:43;;;;;;;22.60;14.45;;;;;;;25.83;72.91;94931.72;5052018;28;20178;-58
2022/07/02 07:26:08;;;;;;;17.27;11.35;;;;;;;25.89;71.93;94938.69;5052299;28;20240;-62
2022/07/02 07:28:34;;;;;;;11.90;10.65;;;;;;;25.85;71.39;94944.53;5051350;28;20557;-60
2022/07/02 07:30:59;;;;;;;10.73;9.63;;;;;;;25.93;71.01;94950.25;5052265;28;20206;-61
2022/07/02 07:33:25;;;;;;;10.55;9.40;;;;;;;26.24;68.57;94978.81;5051945;28;20689;-62
2022/07/02 07:35:50;;;;;;;13.10;9.05;;;;;;;26.32;69.35;94964.69;5034088;28;20530;-63
2022/07/02 07:38:15;;;;;;;15.65;9.23;;;;;;;26.29;71.74;94915.59;5051774;28;20227;-62
2022/07/02 07:40:41;;;;;;;13.40;9.35;;;;;;;26.45;72.33;94910.56;5052179;28;20295;-63
2022/07/02 07:43:06;;;;;;;13.75;11.23;;;;;;;26.50;71.43;94918.50;5052003;28;20226;-63
2022/07/02 07:45:32;;;;;;;11.98;10.48;;;;;;;26.34;69.73;94945.19;5052046;28;20209;-58
2022/07/02 07:47:57;;;;;;;10.85;9.57;;;;;;;26.61;69.13;94951.69;5051265;28;20181;-60
2022/07/02 07:50:23;;;;;;;11.68;10.48;;;;;;;26.65;69.95;94938.97;5051530;28;20231;-62
2022/07/02 07:52:48;;;;;;;15.32;12.02;;;;;;;26.80;71.06;94908.09;5033633;28;20185;-62
2022/07/02 07:55:14;;;;;;;14.35;11.88;;;;;;;27.09;70.00;94941.16;5051683;28;20205;-62
2022/07/02 07:57:39;;;;;;;15.68;12.48;;;;;;;27.12;70.52;94935.50;5051417;28;20177;-62
2022/07/02 08:00:06;;;;;;;18.02;11.60;;;;;;;27.22;68.39;94966.28;5033307;28;20217;-60
2022/07/02 08:02:32;;;;;;;11.15;9.88;;;;;;;27.19;67.13;94982.41;5051709;28;20260;-62
2022/07/02 08:04:57;;;;;;;11.68;10.32;;;;;;;27.23;66.27;94996.63;5033494;28;20680;-61
2022/07/02 08:07:23;;;;;;;11.93;9.60;;;;;;;27.16;64.06;95032.47;5051286;28;20242;-59
2022/07/02 08:09:56;;;;;;;15.02;10.55;;;;;;;27.37;63.13;95039.84;5051492;28;20202;-60
2022/07/02 08:12:22;;;;;;;12.68;8.98;;;;;;;27.41;63.67;95033.16;5051501;28;20634;-62
2022/07/02 08:14:48;;;;;;;12.98;9.23;;;;;;;27.18;63.78;95019.97;5051491;28;20284;-63
2022/07/02 08:17:14;;;;;;;19.30;11.50;;;;;;;27.18;63.38;95028.63;5051518;28;20658;-64
2022/07/02 08:19:39;;;;;;;15.73;9.52;;;;;;;27.31;63.22;95027.63;5051253;28;20209;-59
2022/07/02 08:22:04;;;;;;;14.75;9.63;;;;;;;27.75;64.97;94984.56;5052485;28;20231;-62
2022/07/02 08:24:30;;;;;;;12.80;9.82;;;;;;;27.91;60.84;95070.94;5055286;28;20584;-59
2022/07/02 08:26:55;;;;;;;12.15;9.65;;;;;;;27.70;61.54;95034.88;5055509;28;20170;-61
2022/07/02 08:29:21;;;;;;;12.68;9.55;;;;;;;28.01;61.04;95055.50;5055398;28;20602;-62
2022/07/02 08:31:46;;;;;;;12.52;9.98;;;;;;;28.16;60.56;95058.44;5055189;28;20197;-62
2022/07/02 08:34:12;;;;;;;12.98;9.65;;;;;;;28.16;60.12;95066.28;5055291;28;20329;-62
2022/07/02 08:36:37;;;;;;;11.40;9.77;;;;;;;28.29;60.29;95052.19;5055624;28;20192;-62
2022/07/02 08:39:03;;;;;;;13.98;9.70;;;;;;;28.57;62.56;94988.69;5055122;28;20190;-59
2022/07/02 08:41:29;;;;;;;16.60;10.95;;;;;;;28.77;63.78;94983.81;5037381;28;20206;-63
2022/07/02 08:43:56;;;;;;;12.40;10.48;;;;;;;28.74;62.10;95006.06;5037259;28;20608;-63
2022/07/02 08:46:24;;;;;;;14.52;10.40;;;;;;;28.76;59.35;95077.28;5055293;28;20202;-64
2022/07/02 08:48:50;;;;;;;12.50;10.75;;;;;;;28.78;60.31;95049.06;5055064;28;20262;-62
2022/07/02 08:51:20;;;;;;;11.77;9.63;;;;;;;29.14;60.35;95055.78;5055013;28;20621;-63
2022/07/02 08:53:46;;;;;;;16.77;9.68;;;;;;;29.32;57.61;95101.94;5054607;28;20174;-62
2022/07/02 08:56:13;;;;;;;11.10;9.70;;;;;;;29.41;57.47;95100.56;5020649;28;20347;-59
2022/07/02 08:58:39;;;;;;;12.77;9.73;;;;;;;29.48;59.78;95046.16;5054454;28;20323;-62
2022/07/02 09:01:13;;;;;;;10.75;8.50;;;;;;;29.37;59.92;95036.53;5036818;28;20289;-64
2022/07/02 09:03:39;;;;;;;12.85;9.05;;;;;;;29.37;57.66;95091.56;5055144;28;20264;-62
2022/07/02 09:06:06;;;;;;;9.85;8.95;;;;;;;29.66;57.08;95104.41;5054294;28;20274;-62
2022/07/02 09:08:33;;;;;;;9.88;8.18;;;;;;;29.79;57.16;95098.91;5054497;28;20200;-59
2022/07/02 09:11:00;;;;;;;8.02;7.07;;;;;;;30.10;54.68;95133.47;5036814;28;20205;-59
2022/07/02 09:13:27;;;;;;;11.18;8.13;;;;;;;30.30;55.03;95131.97;5054285;28;20678;-59
2022/07/02 09:15:54;;;;;;;12.70;7.60;;;;;;;30.44;54.34;95135.06;5054736;28;20667;-62
2022/07/02 09:18:20;;;;;;;9.05;7.28;;;;;;;30.53;51.60;95183.50;5054360;28;20186;-60
2022/07/02 09:20:45;;;;;;;8.80;6.75;;;;;;;30.76;52.15;95167.56;5054519;28;20217;-62
2022/07/02 09:23:21;;;;;;;8.18;6.13;;;;;;;30.88;52.84;95139.38;5054447;28;20193;-60
2022/07/02 09:25:48;;;;;;;7.07;6.45;;;;;;;31.07;50.89;95174.03;5054510;28;20198;-64
2022/07/02 09:28:15;;;;;;;8.95;7.47;;;;;;;30.74;48.89;95216.09;5054599;28;20182;-60
2022/07/02 09:30:41;;;;;;;9.80;6.97;;;;;;;30.66;48.63;95204.19;5054394;28;20201;-63
2022/07/02 09:33:30;;;;;;;7.90;6.93;;;;;;;31.05;49.23;95184.78;5052952;28;20315;-62
2022/07/02 09:35:58;;;;;;;8.52;6.03;;;;;;;31.12;47.87;95213.50;5053939;28;20209;-64
2022/07/02 09:38:23;;;;;;;10.00;7.10;;;;;;;31.14;47.17;95232.47;5053810;28;20186;-63
2022/07/02 09:40:57;;;;;;;9.50;6.43;;;;;;;31.39;46.73;95227.56;5036017;28;20698;-62
2022/07/02 09:43:32;;;;;;;7.28;6.15;;;;;;;31.21;45.06;95260.16;5053852;28;20173;-63
2022/07/02 09:46:00;;;;;;;11.77;6.63;;;;;;;31.09;45.71;95240.28;5054040;28;20284;-63
2022/07/02 09:48:27;;;;;;;7.70;6.25;;;;;;;30.95;46.06;95213.53;5053669;28;20270;-62
2022/07/02 09:50:53;;;;;;;9.68;6.65;;;;;;;31.00;46.50;95200.50;5054079;28;20714;-60
2022/07/02 09:53:19;;;;;;;16.08;7.32;;;;;;;31.11;45.81;95217.19;5053625;28;20281;-59
2022/07/02 09:55:50;;;;;;;9.50;6.70;;;;;;;31.45;47.02;95176.63;5053831;28;20695;-64
2022/07/02 09:58:24;;;;;;;11.20;6.47;;;;;;;31.57;46.48;95184.38;5053872;28;20186;-63
2022/07/02 10:00:50;;;;;;;8.05;6.32;;;;;;;31.86;49.15;95086.53;5035712;28;20278;-63
2022/07/02 10:03:15;;;;;;;11.40;7.75;;;;;;;32.13;46.99;95168.09;5053590;28;20651;-63
2022/07/02 10:05:45;;;;;;;10.20;7.38;;;;;;;31.97;43.83;95269.00;5053273;28;20209;-64
2022/07/02 10:08:11;;;;;;;8.35;7.07;;;;;;;31.78;43.68;95250.09;5036188;28;20174;-63
2022/07/02 10:10:40;;;;;;;12.52;7.28;;;;;;;32.08;46.37;95154.88;5053552;28;20209;-63
2022/07/02 10:13:11;;;;;;;21.00;17.20;;;;;;;31.92;47.80;95109.25;5053212;28;20178;-63
2022/07/02 10:15:40;;;;;;;13.93;7.97;;;;;;;32.35;48.51;95071.38;5053724;28;20209;-61
2022/07/02 10:18:06;;;;;;;13.27;7.50;;;;;;;32.43;45.09;95183.34;5053113;28;20177;-62
2022/07/02 10:20:33;;;;;;;14.80;7.18;;;;;;;32.64;45.49;95162.19;5053156;28;20263;-62
2022/07/02 10:23:00;;;;;;;11.65;7.20;;;;;;;32.88;47.26;95105.41;5052977;28;20686;-62
2022/07/02 10:25:26;;;;;;;10.00;7.63;;;;;;;33.03;47.71;95088.88;5053311;28;20284;-62
2022/07/02 10:27:55;;;;;;;8.68;7.35;;;;;;;33.31;47.33;95111.41;5053007;28;20174;-63
2022/07/02 10:30:21;;;;;;;7.18;6.55;;;;;;;33.53;45.13;95162.13;5035734;28;20205;-62
2022/07/02 10:33:10;;;;;;;9.80;6.82;;;;;;;33.77;41.58;95295.19;5052965;28;20201;-63
2022/07/02 10:35:37;;;;;;;11.98;7.20;;;;;;;33.80;44.02;95168.78;5053173;28;20583;-63
2022/07/02 10:38:03;;;;;;;12.38;6.95;;;;;;;33.45;41.82;95244.38;5053052;28;20174;-63
2022/07/02 10:40:28;;;;;;;8.57;6.43;;;;;;;33.65;44.13;95175.88;5053101;28;20228;-63
2022/07/02 10:42:59;;;;;;;8.60;6.85;;;;;;;33.73;42.62;95210.47;5053013;28;20593;-63
2022/07/02 10:45:25;;;;;;;7.68;6.40;;;;;;;33.93;42.94;95199.16;5034504;28;20593;-63
2022/07/02 10:48:03;;;;;;;8.18;6.68;;;;;;;34.14;43.68;95184.16;5052816;28;20174;-62
2022/07/02 10:50:40;;;;;;;11.05;7.00;;;;;;;34.43;39.81;95310.16;5052940;28;20209;-64
2022/07/02 10:53:20;;;;;;;8.15;6.68;;;;;;;33.91;40.48;95250.63;5052758;28;20195;-61
2022/07/02 10:55:51;;;;;;;13.40;6.60;;;;;;;33.45;43.22;95149.41;5052771;28;20209;-60
2022/07/02 10:58:25;;;;;;;7.57;6.47;;;;;;;33.30;44.06;95122.97;5052398;28;20185;-62
2022/07/02 11:00:51;;;;;;;8.27;6.55;;;;;;;33.13;44.83;95109.22;5052840;28;20592;-62
2022/07/02 11:03:20;;;;;;;8.35;6.78;;;;;;;33.66;45.13;95111.47;5052520;28;20674;-63
2022/07/02 11:06:11;;;;;;;8.52;7.03;;;;;;;34.24;44.10;95134.75;5052263;28;20213;-62
2022/07/02 11:08:49;;;;;;;6.88;5.75;;;;;;;34.34;43.58;95155.88;5038443;28;20220;-62
2022/07/02 11:11:36;;;;;;;12.40;8.15;;;;;;;33.77;43.82;95144.75;5052762;28;20226;-63
2022/07/02 11:14:11;;;;;;;9.25;6.90;;;;;;;32.88;45.67;95059.81;5052721;28;20261;-63
2022/07/02 11:16:41;;;;;;;10.27;7.40;;;;;;;32.23;46.48;95031.31;5052762;28;20220;-64
2022/07/02 11:19:28;;;;;;;12.93;7.05;;;;;;;32.24;45.18;95075.78;5052143;28;20192;-63
2022/07/02 11:21:58;;;;;;;8.85;7.18;;;;;;;33.17;46.38;95047.81;5052097;28;20549;-63
2022/07/02 11:24:29;;;;;;;8.00;6.63;;;;;;;33.65;47.96;95014.94;5052018;28;20178;-63
2022/07/02 11:26:57;;;;;;;10.70;7.40;;;;;;;34.23;45.58;95072.47;5052339;28;20200;-63
2022/07/02 11:37:01;;;;;;;7.60;6.28;;;;;;;33.27;44.46;95083.97;5030921;28;20209;-63
2022/07/02 11:39:28;;;;;;;10.32;6.68;;;;;;;33.64;43.71;95129.41;5590656;22;20681;-63
2022/07/02 11:41:54;;;;;;;7.35;6.60;;;;;;;33.67;42.93;95139.47;5050554;28;20220;-64
2022/07/02 11:44:21;;;;;;;7.90;7.10;;;;;;;33.43;44.88;95062.63;5051955;28;20197;-63